createdAt,value
2019-05-13T00:00:23.606Z,9.00
2019-05-13T00:01:23.876Z,9.08
2019-05-13T00:03:16.265Z,8.97
2019-05-13T00:04:16.039Z,8.94
2019-05-13T00:06:08.899Z,8.88
2019-05-13T00:07:09.042Z,8.80
2019-05-13T00:09:03.538Z,8.80
2019-05-13T00:10:03.845Z,8.86
2019-05-13T00:11:55.246Z,8.85
2019-05-13T00:12:54.985Z,8.80
2019-05-13T00:14:47.931Z,8.82
2019-05-13T00:15:48.157Z,8.75
2019-05-13T00:17:40.901Z,8.73
2019-05-13T00:18:40.791Z,8.65
2019-05-13T00:20:34.117Z,8.73
2019-05-13T00:21:34.068Z,8.80
2019-05-13T00:23:26.294Z,8.65
2019-05-13T00:24:26.224Z,8.67
2019-05-13T00:26:19.253Z,8.58
2019-05-13T00:27:19.108Z,8.58
2019-05-13T00:29:14.121Z,8.49
2019-05-13T00:30:14.225Z,8.43
2019-05-13T00:32:05.025Z,8.50
2019-05-13T00:33:04.608Z,8.55
2019-05-13T00:34:57.298Z,8.52
2019-05-13T00:35:57.233Z,8.45
2019-05-13T00:37:49.989Z,8.36
2019-05-13T00:38:49.916Z,8.32
2019-05-13T00:40:44.361Z,8.27
2019-05-13T00:41:44.258Z,8.37
2019-05-13T00:43:35.410Z,8.29
2019-05-13T00:44:35.322Z,8.40
2019-05-13T00:46:28.158Z,8.36
2019-05-13T00:47:28.037Z,8.40
2019-05-13T00:49:20.814Z,8.29
2019-05-13T00:50:20.723Z,8.27
2019-05-13T00:52:14.327Z,8.18
2019-05-13T00:53:13.575Z,8.18
2019-05-13T00:55:06.226Z,8.07
2019-05-13T00:56:06.253Z,8.12
2019-05-13T00:57:58.970Z,8.10
2019-05-13T00:58:58.901Z,8.13
2019-05-13T01:00:51.827Z,8.20
2019-05-13T01:01:53.276Z,8.22
2019-05-13T01:03:44.502Z,8.18
2019-05-13T01:04:44.427Z,8.21
2019-05-13T01:06:37.270Z,8.18
2019-05-13T01:07:37.192Z,8.13
2019-05-13T01:09:30.093Z,8.09
2019-05-13T01:10:29.962Z,8.06
2019-05-13T01:12:23.775Z,8.12
2019-05-13T01:13:23.785Z,8.13
2019-05-13T01:15:15.452Z,8.06
2019-05-13T01:16:15.345Z,7.96
2019-05-13T01:18:08.208Z,8.00
2019-05-13T01:19:08.212Z,7.92
2019-05-13T01:21:01.056Z,7.94
2019-05-13T01:22:03.219Z,7.95
2019-05-13T01:23:54.312Z,7.99
2019-05-13T01:24:54.178Z,7.99
2019-05-13T01:26:46.416Z,7.94
2019-05-13T01:27:46.339Z,7.96
2019-05-13T01:29:39.124Z,7.92
2019-05-13T01:30:39.015Z,7.86
2019-05-13T01:32:34.186Z,7.76
2019-05-13T01:33:31.904Z,7.82
2019-05-13T01:35:24.807Z,7.71
2019-05-13T01:36:24.700Z,7.74
2019-05-13T01:38:17.483Z,7.67
2019-05-13T01:39:17.470Z,7.58
2019-05-13T01:41:10.204Z,7.66
2019-05-13T01:42:10.126Z,7.71
2019-05-13T01:44:04.157Z,7.81
2019-05-13T01:45:04.638Z,7.79
2019-05-13T01:46:56.661Z,7.67
2019-05-13T01:47:56.585Z,7.69
2019-05-13T01:49:49.471Z,7.69
2019-05-13T01:50:49.405Z,7.58
2019-05-13T01:52:44.305Z,7.66
2019-05-13T01:53:44.065Z,7.54
2019-05-13T01:55:44.835Z,7.58
2019-05-13T01:56:44.724Z,7.54
2019-05-13T01:58:37.788Z,7.48
2019-05-13T01:59:37.433Z,7.54
2019-05-13T02:01:30.350Z,7.42
2019-05-13T02:02:30.244Z,7.47
2019-05-13T02:04:24.470Z,7.42
2019-05-13T02:05:24.261Z,7.41
2019-05-13T02:07:15.764Z,7.39
2019-05-13T02:08:15.678Z,7.44
2019-05-13T02:10:08.540Z,7.44
2019-05-13T02:11:08.427Z,7.45
2019-05-13T02:13:01.751Z,7.48
2019-05-13T02:14:01.153Z,7.42
2019-05-13T02:15:54.856Z,7.45
2019-05-13T02:16:53.874Z,7.42
2019-05-13T02:18:46.614Z,7.44
2019-05-13T02:19:46.558Z,7.37
2019-05-13T02:21:39.390Z,7.44
2019-05-13T02:22:39.323Z,7.37
2019-05-13T02:24:34.099Z,7.18
2019-05-13T02:25:34.078Z,7.29
2019-05-13T02:27:25.549Z,7.24
2019-05-13T02:28:25.313Z,7.24
2019-05-13T02:30:17.551Z,7.14
2019-05-13T02:31:26.830Z,7.18
2019-05-13T02:33:13.163Z,7.11
2019-05-13T02:34:13.380Z,7.07
2019-05-13T02:36:03.494Z,7.11
2019-05-13T02:37:03.534Z,7.08
2019-05-13T02:38:55.790Z,6.96
2019-05-13T02:39:55.705Z,6.97
2019-05-13T02:41:52.726Z,6.91
2019-05-13T02:42:52.146Z,6.93
2019-05-13T02:44:43.703Z,6.99
2019-05-13T02:45:42.913Z,7.09
2019-05-13T02:47:34.869Z,7.05
2019-05-13T02:48:34.773Z,7.08
2019-05-13T02:50:27.801Z,7.07
2019-05-13T02:51:27.536Z,7.01
2019-05-13T02:53:23.249Z,7.09
2019-05-13T02:54:22.886Z,7.07
2019-05-13T02:56:13.089Z,7.14
2019-05-13T02:57:13.047Z,7.05
2019-05-13T02:59:05.817Z,7.12
2019-05-13T03:00:05.735Z,7.01
2019-05-13T03:01:59.065Z,7.01
2019-05-13T03:02:58.449Z,6.99
2019-05-13T03:04:52.359Z,6.89
2019-05-13T03:05:52.645Z,6.89
2019-05-13T03:07:44.056Z,6.91
2019-05-13T03:08:49.604Z,6.97
2019-05-13T03:10:36.712Z,6.97
2019-05-13T03:11:36.640Z,6.91
2019-05-13T03:13:32.310Z,6.97
2019-05-13T03:14:32.060Z,6.91
2019-05-13T03:16:23.156Z,6.91
2019-05-13T03:17:22.608Z,6.89
2019-05-13T03:19:15.027Z,6.87
2019-05-13T03:20:16.655Z,6.75
2019-05-13T03:22:07.714Z,6.86
2019-05-13T03:23:07.613Z,6.86
2019-05-13T03:25:03.193Z,6.75
2019-05-13T03:26:02.808Z,6.76
2019-05-13T03:27:54.341Z,6.87
2019-05-13T03:28:53.122Z,6.89
2019-05-13T03:30:46.497Z,6.87
2019-05-13T03:31:47.112Z,6.82
2019-05-13T03:33:38.660Z,6.83
2019-05-13T03:34:38.522Z,6.81
2019-05-13T03:36:36.365Z,6.76
2019-05-13T03:37:34.816Z,6.83
2019-05-13T03:39:24.036Z,6.89
2019-05-13T03:40:23.940Z,6.82
2019-05-13T03:42:17.196Z,6.78
2019-05-13T03:43:17.033Z,6.76
2019-05-13T03:45:12.742Z,6.91
2019-05-13T03:46:12.197Z,6.90
2019-05-13T03:48:04.127Z,6.81
2019-05-13T03:49:02.619Z,6.75
2019-05-13T03:50:55.480Z,6.75
2019-05-13T03:51:55.495Z,6.73
2019-05-13T03:53:48.135Z,6.73
2019-05-13T03:54:48.061Z,6.79
2019-05-13T03:56:42.643Z,6.79
2019-05-13T03:57:42.635Z,6.82
2019-05-13T03:59:33.835Z,6.87
2019-05-13T04:00:33.553Z,6.91
2019-05-13T04:02:26.586Z,6.94
2019-05-13T04:03:26.355Z,7.05
2019-05-13T04:05:22.436Z,6.99
2019-05-13T04:06:19.103Z,6.96
2019-05-13T04:08:13.283Z,6.99
2019-05-13T04:09:22.447Z,7.01
2019-05-13T04:11:04.635Z,7.01
2019-05-13T04:12:04.545Z,7.01
2019-05-13T04:13:57.379Z,6.97
2019-05-13T04:14:57.264Z,6.91
2019-05-13T04:16:52.874Z,7.01
2019-05-13T04:17:52.888Z,7.01
2019-05-13T04:19:42.916Z,7.11
2019-05-13T04:20:42.875Z,7.11
2019-05-13T04:22:35.440Z,7.09
2019-05-13T04:23:35.376Z,7.08
2019-05-13T04:25:28.362Z,7.08
2019-05-13T04:26:28.345Z,7.07
2019-05-13T04:28:22.243Z,7.11
2019-05-13T04:29:23.411Z,7.14
2019-05-13T04:31:14.563Z,7.29
2019-05-13T04:32:13.767Z,7.24
2019-05-13T04:34:12.283Z,7.21
2019-05-13T04:37:02.471Z,7.32
2019-05-13T04:38:03.497Z,7.33
2019-05-13T04:39:56.358Z,7.33
2019-05-13T04:40:53.371Z,7.44
2019-05-13T04:42:46.211Z,7.54
2019-05-13T04:43:46.182Z,7.44
2019-05-13T04:45:38.902Z,7.57
2019-05-13T04:46:38.860Z,7.66
2019-05-13T04:48:34.042Z,7.67
2019-05-13T04:49:32.613Z,7.74
2019-05-13T04:51:24.310Z,7.76
2019-05-13T04:52:24.242Z,7.88
2019-05-13T04:54:17.037Z,7.95
2019-05-13T04:55:16.948Z,7.96
2019-05-13T04:57:12.372Z,8.06
2019-05-13T04:58:12.690Z,8.18
2019-05-13T05:00:04.192Z,8.27
2019-05-13T05:01:08.496Z,8.28
2019-05-13T05:02:55.664Z,8.49
2019-05-13T05:03:55.142Z,8.55
2019-05-13T05:05:47.879Z,8.78
2019-05-13T05:06:47.808Z,8.91
2019-05-13T05:08:42.168Z,9.31
2019-05-13T05:10:10.199Z,9.41
2019-05-13T05:11:33.339Z,10.49
2019-05-13T05:12:33.260Z,11.77
2019-05-13T05:14:26.385Z,13.13
2019-05-13T05:15:26.335Z,13.80
2019-05-13T05:17:19.119Z,15.00
2019-05-13T05:18:21.953Z,15.52
2019-05-13T05:20:12.494Z,15.89
2019-05-13T05:21:12.019Z,15.53
2019-05-13T05:23:04.569Z,16.42
2019-05-13T05:24:04.493Z,16.70
2019-05-13T05:25:57.328Z,16.98
2019-05-13T05:26:57.209Z,17.51
2019-05-13T05:28:51.918Z,17.86
2019-05-13T05:29:51.615Z,17.84
2019-05-13T05:31:42.770Z,18.35
2019-05-13T05:32:42.682Z,18.42
2019-05-13T05:34:35.520Z,18.60
2019-05-13T05:35:35.409Z,18.57
2019-05-13T05:37:28.255Z,19.32
2019-05-13T05:38:28.121Z,19.34
2019-05-13T05:40:30.914Z,19.49
2019-05-13T05:41:21.362Z,19.60
2019-05-13T05:43:14.015Z,20.07
2019-05-13T05:44:13.610Z,20.20
2019-05-13T05:46:06.518Z,20.05
2019-05-13T05:47:06.424Z,19.55
2019-05-13T05:49:01.596Z,20.10
2019-05-13T05:49:59.141Z,19.87
2019-05-13T05:51:51.948Z,20.19
2019-05-13T05:52:51.858Z,20.19
2019-05-13T05:54:44.663Z,20.76
2019-05-13T05:55:44.572Z,20.51
2019-05-13T05:57:37.412Z,20.16
2019-05-13T05:58:37.298Z,20.20
2019-05-13T06:00:32.253Z,20.73
2019-05-13T06:01:32.550Z,20.17
2019-05-13T06:03:22.950Z,20.17
2019-05-13T06:04:22.844Z,20.61
2019-05-13T06:06:15.651Z,21.06
2019-05-13T06:07:15.566Z,21.49
2019-05-13T06:09:08.394Z,21.70
2019-05-13T06:10:08.352Z,21.89
2019-05-13T06:12:01.830Z,22.15
2019-05-13T06:13:01.853Z,21.79
2019-05-13T06:14:53.888Z,22.33
2019-05-13T06:15:53.802Z,22.17
2019-05-13T06:17:46.612Z,22.52
2019-05-13T06:18:46.538Z,22.96
2019-05-13T06:20:41.670Z,23.22
2019-05-13T06:21:41.885Z,23.38
2019-05-13T06:23:32.105Z,23.62
2019-05-13T06:24:32.065Z,23.44
2019-05-13T06:26:24.844Z,23.23
2019-05-13T06:27:24.755Z,23.11
2019-05-13T06:29:17.576Z,23.52
2019-05-13T06:30:17.542Z,23.37
2019-05-13T06:32:18.993Z,23.44
2019-05-13T06:33:11.997Z,23.96
2019-05-13T06:35:03.082Z,24.18
2019-05-13T06:36:03.018Z,23.92
2019-05-13T06:37:55.851Z,23.84
2019-05-13T06:38:55.774Z,23.97
2019-05-13T06:41:02.441Z,23.90
2019-05-13T06:41:51.648Z,23.84
2019-05-13T06:43:42.222Z,24.52
2019-05-13T06:44:42.283Z,24.87
2019-05-13T06:46:34.943Z,25.01
2019-05-13T06:47:36.260Z,25.26
2019-05-13T06:49:27.732Z,24.79
2019-05-13T06:50:27.672Z,24.61
2019-05-13T06:52:21.223Z,24.90
2019-05-13T06:53:21.762Z,24.46
2019-05-13T06:55:13.256Z,23.99
2019-05-13T06:56:13.176Z,24.08
2019-05-13T06:58:06.015Z,24.75
2019-05-13T06:59:06.010Z,25.24
2019-05-13T07:00:58.969Z,25.11
2019-05-13T07:01:58.673Z,24.89
2019-05-13T07:03:51.941Z,24.53
2019-05-13T07:04:51.791Z,24.90
2019-05-13T07:06:44.331Z,25.49
2019-05-13T07:07:44.242Z,25.82
2019-05-13T07:09:37.068Z,26.12
2019-05-13T07:10:37.029Z,25.63
2019-05-13T07:12:31.226Z,25.59
2019-05-13T07:13:32.099Z,24.89
2019-05-13T07:15:22.613Z,24.77
2019-05-13T07:16:22.517Z,25.22
2019-05-13T07:18:16.325Z,25.93
2019-05-13T07:19:15.244Z,25.41
2019-05-13T07:21:08.086Z,24.90
2019-05-13T07:22:08.023Z,25.04
2019-05-13T07:24:02.333Z,25.07
2019-05-13T07:25:02.579Z,25.30
2019-05-13T07:26:53.589Z,25.27
2019-05-13T07:27:53.480Z,25.17
2019-05-13T07:29:46.324Z,25.45
2019-05-13T07:30:46.332Z,25.59
2019-05-13T07:32:39.058Z,25.35
2019-05-13T07:33:38.998Z,25.63
2019-05-13T07:35:37.524Z,25.69
2019-05-13T07:36:31.830Z,24.87
2019-05-13T07:38:24.602Z,25.49
2019-05-13T07:39:24.526Z,25.42
2019-05-13T07:41:31.308Z,25.44
2019-05-13T07:42:17.277Z,25.53
2019-05-13T07:44:11.866Z,26.44
2019-05-13T07:45:12.175Z,26.75
2019-05-13T07:47:03.645Z,27.40
2019-05-13T07:48:02.770Z,27.62
2019-05-13T07:49:56.000Z,27.74
2019-05-13T07:51:00.300Z,27.03
2019-05-13T07:52:51.338Z,26.42
2019-05-13T07:53:48.700Z,26.21
2019-05-13T07:55:42.110Z,25.64
2019-05-13T07:56:42.641Z,25.75
2019-05-13T07:58:37.440Z,26.59
2019-05-13T07:59:34.190Z,26.83
2019-05-13T08:01:26.967Z,26.16
2019-05-13T08:02:26.914Z,26.11
2019-05-13T08:04:25.635Z,26.47
2019-05-13T08:05:22.135Z,26.75
2019-05-13T08:07:12.495Z,27.72
2019-05-13T08:08:12.416Z,27.59
2019-05-13T08:10:05.239Z,27.91
2019-05-13T08:11:05.361Z,27.72
2019-05-13T08:12:58.002Z,28.03
2019-05-13T08:13:57.941Z,28.20
2019-05-13T08:15:54.396Z,26.61
2019-05-13T08:16:51.815Z,25.29
2019-05-13T08:18:43.984Z,23.45
2019-05-13T08:19:43.470Z,23.67
2019-05-13T08:21:36.298Z,25.14
2019-05-13T08:22:36.224Z,25.66
2019-05-13T08:24:31.250Z,26.42
2019-05-13T08:25:31.363Z,26.90
2019-05-13T08:27:30.505Z,27.23
2019-05-13T08:28:22.522Z,27.39
2019-05-13T08:30:17.946Z,27.08
2019-05-13T08:31:14.508Z,27.09
2019-05-13T08:33:07.322Z,27.05
2019-05-13T08:34:07.265Z,26.76
2019-05-13T08:36:01.601Z,25.07
2019-05-13T08:37:02.752Z,24.09
2019-05-13T08:38:52.796Z,22.29
2019-05-13T08:39:52.742Z,23.06
2019-05-13T08:41:45.547Z,23.54
2019-05-13T08:42:45.483Z,24.27
2019-05-13T08:44:38.313Z,23.82
2019-05-13T08:45:38.271Z,24.15
2019-05-13T08:47:31.492Z,24.55
2019-05-13T08:48:32.391Z,24.44
2019-05-13T08:50:23.825Z,24.99
2019-05-13T08:51:23.764Z,25.44
2019-05-13T08:53:16.576Z,25.74
2019-05-13T08:54:16.539Z,26.01
2019-05-13T08:56:09.399Z,25.36
2019-05-13T08:57:11.599Z,25.74
2019-05-13T08:59:02.133Z,26.11
2019-05-13T09:00:05.257Z,26.42
2019-05-13T09:01:54.891Z,26.44
2019-05-13T09:02:54.848Z,26.31
2019-05-13T09:04:47.651Z,26.17
2019-05-13T09:05:47.566Z,26.41
2019-05-13T09:07:41.244Z,26.91
2019-05-13T09:08:42.423Z,26.83
2019-05-13T09:10:33.153Z,26.49
2019-05-13T09:11:33.064Z,26.46
2019-05-13T09:13:25.927Z,27.06
2019-05-13T09:14:25.828Z,26.84
2019-05-13T09:16:21.282Z,27.31
2019-05-13T09:17:18.571Z,27.05
2019-05-13T09:19:15.877Z,27.08
2019-05-13T09:20:11.564Z,27.21
2019-05-13T09:22:04.137Z,26.38
2019-05-13T09:23:04.074Z,26.28
2019-05-13T09:24:56.893Z,25.04
2019-05-13T09:25:56.822Z,23.84
2019-05-13T09:27:51.362Z,22.52
2019-05-13T09:28:51.989Z,22.20
2019-05-13T09:30:42.668Z,21.66
2019-05-13T09:31:42.326Z,21.11
2019-05-13T09:33:35.141Z,22.29
2019-05-13T09:34:35.074Z,22.89
2019-05-13T09:36:28.189Z,22.51
2019-05-13T09:37:27.833Z,23.09
2019-05-13T09:39:21.645Z,24.08
2019-05-13T09:40:22.384Z,24.52
2019-05-13T09:42:13.459Z,24.92
2019-05-13T09:43:13.311Z,25.46
2019-05-13T09:45:06.143Z,24.39
2019-05-13T09:46:06.066Z,23.38
2019-05-13T09:47:58.883Z,21.13
2019-05-13T09:49:14.977Z,20.44
2019-05-13T09:50:51.921Z,18.97
2019-05-13T09:51:52.285Z,18.35
2019-05-13T09:53:44.494Z,18.07
2019-05-13T09:54:44.386Z,17.84
2019-05-13T09:56:37.188Z,18.74
2019-05-13T09:57:37.121Z,20.07
2019-05-13T09:59:31.918Z,22.08
2019-05-13T10:00:32.181Z,22.79
2019-05-13T10:02:22.658Z,24.04
2019-05-13T10:03:28.912Z,24.67
2019-05-13T10:05:15.385Z,25.56
2019-05-13T10:06:15.307Z,26.00
2019-05-13T10:08:08.160Z,26.44
2019-05-13T10:09:08.079Z,26.20
2019-05-13T10:11:01.619Z,25.20
2019-05-13T10:12:03.120Z,24.16
2019-05-13T10:13:53.663Z,22.84
2019-05-13T10:14:53.605Z,21.82
2019-05-13T10:16:46.410Z,20.46
2019-05-13T10:17:46.352Z,21.11
2019-05-13T10:19:41.647Z,21.98
2019-05-13T10:20:41.898Z,21.66
2019-05-13T10:22:32.198Z,22.39
2019-05-13T10:23:32.898Z,23.22
2019-05-13T10:25:24.668Z,23.94
2019-05-13T10:26:24.595Z,24.79
2019-05-13T10:28:17.412Z,25.30
2019-05-13T10:29:17.335Z,25.85
2019-05-13T10:31:11.959Z,26.11
2019-05-13T10:32:10.088Z,26.24
2019-05-13T10:34:02.905Z,24.59
2019-05-13T10:35:03.554Z,23.29
2019-05-13T10:36:55.680Z,21.13
2019-05-13T10:37:55.598Z,20.35
2019-05-13T10:39:48.398Z,19.55
2019-05-13T10:40:48.339Z,19.21
2019-05-13T10:42:43.320Z,20.00
2019-05-13T10:43:44.259Z,20.35
2019-05-13T10:45:33.880Z,19.76
2019-05-13T10:46:33.808Z,20.19
2019-05-13T10:48:26.642Z,20.88
2019-05-13T10:49:26.561Z,20.90
2019-05-13T10:51:22.125Z,20.76
2019-05-13T10:52:19.297Z,20.41
2019-05-13T10:54:12.091Z,19.42
2019-05-13T10:55:12.843Z,19.24
2019-05-13T10:57:04.850Z,19.40
2019-05-13T10:58:04.776Z,19.60
2019-05-13T11:00:00.541Z,19.57
2019-05-13T11:00:57.514Z,19.64
2019-05-13T11:02:50.358Z,19.85
2019-05-13T11:03:52.367Z,19.67
2019-05-13T11:05:44.769Z,19.39
2019-05-13T11:06:42.972Z,19.25
2019-05-13T11:08:35.800Z,18.91
2019-05-13T11:09:35.707Z,18.79
2019-05-13T11:11:28.542Z,18.34
2019-05-13T11:12:28.724Z,18.10
2019-05-13T11:14:22.022Z,17.95
2019-05-13T11:15:21.171Z,18.02
2019-05-13T11:17:14.154Z,18.13
2019-05-13T11:18:19.005Z,18.13
2019-05-13T11:20:06.731Z,18.75
2019-05-13T11:21:06.655Z,18.93
2019-05-13T11:22:59.508Z,19.38
2019-05-13T11:23:59.412Z,19.57
2019-05-13T11:25:52.529Z,19.70
2019-05-13T11:26:52.976Z,19.95
2019-05-13T11:28:44.951Z,19.62
2019-05-13T11:29:44.861Z,19.60
2019-05-13T11:31:37.687Z,19.57
2019-05-13T11:32:37.614Z,19.23
2019-05-13T11:34:32.965Z,18.96
2019-05-13T11:35:31.982Z,18.78
2019-05-13T11:37:23.424Z,18.09
2019-05-13T11:38:23.045Z,17.65
2019-05-13T11:40:15.877Z,17.60
2019-05-13T11:41:15.798Z,17.55
2019-05-13T11:43:08.588Z,17.54
2019-05-13T11:44:14.117Z,17.60
2019-05-13T11:46:02.299Z,17.74
2019-05-13T11:47:02.408Z,17.77
2019-05-13T11:48:54.090Z,18.02
2019-05-13T11:49:54.007Z,18.23
2019-05-13T11:51:46.815Z,18.32
2019-05-13T11:52:46.730Z,18.46
2019-05-13T11:54:42.297Z,18.47
2019-05-13T11:55:42.241Z,18.50
2019-05-13T11:57:32.279Z,18.39
2019-05-13T11:58:32.607Z,18.42
2019-05-13T12:00:25.010Z,18.32
2019-05-13T12:01:24.944Z,18.34
2019-05-13T12:03:17.747Z,18.31
2019-05-13T12:04:17.676Z,18.39
2019-05-13T12:06:10.506Z,18.42
2019-05-13T12:07:13.004Z,18.47
2019-05-13T12:09:03.456Z,18.13
2019-05-13T12:10:03.192Z,17.94
2019-05-13T12:11:55.972Z,18.23
2019-05-13T12:12:56.188Z,18.49
2019-05-13T12:15:20.468Z,18.82
2019-05-13T12:15:49.933Z,18.68
2019-05-13T12:17:42.923Z,18.96
2019-05-13T12:18:43.721Z,18.91
2019-05-13T12:20:34.163Z,18.59
2019-05-13T12:21:41.585Z,18.38
2019-05-13T12:23:26.881Z,18.13
2019-05-13T12:24:26.802Z,18.09
2019-05-13T12:26:19.601Z,18.01
2019-05-13T12:27:19.531Z,17.87
2019-05-13T12:29:18.599Z,17.71
2019-05-13T12:30:12.656Z,17.57
2019-05-13T12:32:05.377Z,17.47
2019-05-13T12:33:05.257Z,17.47
2019-05-13T12:34:58.060Z,17.35
2019-05-13T12:35:57.973Z,17.24
2019-05-13T12:37:53.388Z,17.35
2019-05-13T12:38:53.633Z,17.38
2019-05-13T12:40:43.567Z,17.39
2019-05-13T12:41:43.535Z,17.42
2019-05-13T12:43:36.341Z,17.62
2019-05-13T12:44:59.412Z,17.73
2019-05-13T12:46:28.972Z,17.87
2019-05-13T12:47:28.908Z,17.84
2019-05-13T12:49:22.190Z,17.33
2019-05-13T12:50:23.639Z,17.33
2019-05-13T12:52:14.699Z,17.30
2019-05-13T12:53:14.613Z,17.38
2019-05-13T12:55:07.440Z,17.43
2019-05-13T12:56:07.362Z,17.66
2019-05-13T12:58:02.774Z,17.68
2019-05-13T12:59:02.694Z,17.73
2019-05-13T13:00:53.577Z,17.51
2019-05-13T13:01:52.941Z,17.53
2019-05-13T13:03:45.597Z,17.09
2019-05-13T13:05:07.946Z,17.07
2019-05-13T13:06:41.566Z,17.30
2019-05-13T13:07:42.379Z,17.46
2019-05-13T13:09:33.502Z,17.74
2019-05-13T13:10:34.507Z,17.84
2019-05-13T13:12:33.944Z,18.17
2019-05-13T13:13:51.945Z,18.23
2019-05-13T13:15:35.816Z,18.20
2019-05-13T13:16:16.432Z,18.31
2019-05-13T13:18:13.938Z,18.56
2019-05-13T13:19:09.196Z,18.53
2019-05-13T13:21:06.998Z,18.66
2019-05-13T13:22:07.291Z,18.83
2019-05-13T13:23:54.739Z,18.87
2019-05-13T13:24:57.489Z,18.89
2019-05-13T13:26:47.408Z,18.49
2019-05-13T13:28:08.746Z,18.21
2019-05-13T13:29:43.165Z,17.84
2019-05-13T13:30:43.893Z,17.76
2019-05-13T13:32:33.291Z,17.55
2019-05-13T13:33:34.330Z,17.51
2019-05-13T13:35:25.634Z,17.53
2019-05-13T13:36:25.571Z,17.57
2019-05-13T13:38:18.347Z,17.38
2019-05-13T13:39:18.303Z,16.98
2019-05-13T13:41:21.869Z,16.99
2019-05-13T13:42:13.167Z,16.91
2019-05-13T13:44:05.463Z,16.84
2019-05-13T13:45:06.081Z,16.77
2019-05-13T13:46:56.544Z,16.65
2019-05-13T13:48:03.235Z,16.72
2019-05-13T13:49:49.740Z,16.59
2019-05-13T13:50:55.127Z,16.63
2019-05-13T13:52:45.736Z,16.77
2019-05-13T13:53:44.221Z,16.67
2019-05-13T13:55:34.715Z,16.63
2019-05-13T13:56:34.635Z,16.75
2019-05-13T13:58:27.607Z,16.81
2019-05-13T13:59:27.530Z,16.92
2019-05-13T14:01:26.648Z,17.09
2019-05-13T14:02:23.964Z,17.07
2019-05-13T14:04:16.549Z,17.27
2019-05-13T14:05:12.960Z,17.42
2019-05-13T14:07:22.679Z,17.33
2019-05-13T14:08:05.670Z,17.25
2019-05-13T14:09:58.461Z,17.07
2019-05-13T14:10:58.378Z,17.07
2019-05-13T14:12:52.468Z,16.91
2019-05-13T14:13:51.841Z,16.92
2019-05-13T14:15:43.898Z,16.96
2019-05-13T14:16:46.679Z,16.92
2019-05-13T14:18:36.585Z,17.03
2019-05-13T14:19:36.521Z,17.02
2019-05-13T14:21:29.328Z,17.18
2019-05-13T14:22:29.252Z,17.07
2019-05-13T14:24:22.064Z,17.14
2019-05-13T14:25:22.456Z,17.09
2019-05-13T14:27:14.759Z,17.05
2019-05-13T14:28:17.656Z,17.00
2019-05-13T14:30:07.477Z,16.99
2019-05-13T14:31:07.399Z,17.00
2019-05-13T14:33:02.340Z,16.92
2019-05-13T14:34:00.098Z,16.99
2019-05-13T14:35:53.198Z,17.05
2019-05-13T14:36:52.808Z,17.24
2019-05-13T14:38:45.610Z,17.46
2019-05-13T14:39:45.518Z,17.35
2019-05-13T14:41:38.334Z,16.96
2019-05-13T14:42:38.249Z,16.98
2019-05-13T14:44:32.481Z,17.14
2019-05-13T14:45:31.811Z,17.21
2019-05-13T14:47:23.828Z,17.25
2019-05-13T14:48:23.725Z,17.10
2019-05-13T14:50:16.555Z,16.99
2019-05-13T14:51:16.448Z,16.95
2019-05-13T14:53:09.246Z,16.82
2019-05-13T14:54:09.164Z,16.81
2019-05-13T14:56:02.959Z,16.55
2019-05-13T14:57:02.529Z,16.52
2019-05-13T14:58:54.665Z,16.42
2019-05-13T14:59:54.600Z,16.29
2019-05-13T15:01:47.418Z,16.29
2019-05-13T15:02:47.302Z,16.13
2019-05-13T15:04:41.848Z,16.04
2019-05-13T15:05:40.065Z,16.03
2019-05-13T15:07:32.900Z,15.88
2019-05-13T15:08:33.255Z,15.80
2019-05-13T15:10:25.586Z,15.89
2019-05-13T15:11:25.519Z,16.01
2019-05-13T15:13:18.302Z,16.16
2019-05-13T15:14:18.247Z,16.17
2019-05-13T15:16:11.054Z,16.08
2019-05-13T15:17:12.750Z,16.18
2019-05-13T15:19:03.757Z,16.17
2019-05-13T15:20:03.686Z,16.30
2019-05-13T15:21:56.486Z,16.14
2019-05-13T15:22:56.493Z,16.10
2019-05-13T15:24:51.712Z,16.18
2019-05-13T15:25:51.301Z,16.23
2019-05-13T15:27:42.182Z,16.16
2019-05-13T15:28:42.313Z,16.07
2019-05-13T15:30:34.655Z,16.01
2019-05-13T15:31:34.594Z,15.96
2019-05-13T15:33:27.501Z,15.84
2019-05-13T15:34:27.303Z,15.96
2019-05-13T15:36:22.381Z,16.07
2019-05-13T15:37:21.458Z,16.13
2019-05-13T15:39:12.798Z,16.29
2019-05-13T15:40:12.795Z,16.37
2019-05-13T15:42:05.591Z,16.65
2019-05-13T15:43:05.522Z,16.77
2019-05-13T15:44:58.392Z,16.96
2019-05-13T15:45:58.245Z,17.14
2019-05-13T15:47:51.686Z,17.10
2019-05-13T15:48:51.519Z,16.92
2019-05-13T15:50:43.719Z,17.17
2019-05-13T15:51:43.654Z,17.09
2019-05-13T15:53:36.473Z,16.78
2019-05-13T15:54:36.374Z,16.54
2019-05-13T15:56:31.520Z,16.34
2019-05-13T15:57:29.196Z,16.36
2019-05-13T15:59:21.970Z,16.27
2019-05-13T16:00:22.119Z,16.27
2019-05-13T16:02:14.710Z,16.27
2019-05-13T16:03:14.631Z,16.25
2019-05-13T16:05:07.445Z,16.27
2019-05-13T16:06:07.384Z,16.11
2019-05-13T16:08:01.426Z,16.17
2019-05-13T16:09:02.743Z,16.23
2019-05-13T16:10:53.552Z,16.45
2019-05-13T16:11:52.983Z,16.42
2019-05-13T16:13:45.772Z,16.50
2019-05-13T16:14:45.705Z,16.40
2019-05-13T16:16:38.474Z,16.50
2019-05-13T16:17:42.265Z,16.42
2019-05-13T16:19:32.601Z,16.25
2019-05-13T16:20:32.181Z,16.17
2019-05-13T16:22:23.956Z,15.95
2019-05-13T16:23:23.893Z,15.89
2019-05-13T16:25:16.757Z,15.85
2019-05-13T16:26:16.678Z,15.84
2019-05-13T16:28:09.510Z,15.84
2019-05-13T16:29:11.962Z,15.85
2019-05-13T16:31:02.583Z,15.58
2019-05-13T16:32:02.181Z,15.46
2019-05-13T16:33:54.959Z,15.38
2019-05-13T16:34:54.890Z,15.33
2019-05-13T16:36:47.729Z,15.38
2019-05-13T16:37:47.678Z,15.22
2019-05-13T16:39:41.445Z,15.09
2019-05-13T16:40:42.324Z,15.15
2019-05-13T16:42:33.199Z,15.22
2019-05-13T16:43:33.109Z,15.22
2019-05-13T16:45:26.302Z,15.20
2019-05-13T16:46:25.980Z,15.22
2019-05-13T16:48:18.842Z,15.23
2019-05-13T16:49:21.142Z,15.16
2019-05-13T16:51:12.388Z,15.01
2019-05-13T16:52:11.826Z,14.85
2019-05-13T16:54:04.224Z,14.78
2019-05-13T16:55:04.157Z,14.75
2019-05-13T16:56:56.973Z,14.53
2019-05-13T16:57:56.898Z,14.56
2019-05-13T16:59:51.739Z,14.46
2019-05-13T17:00:52.121Z,14.45
2019-05-13T17:02:42.481Z,14.45
2019-05-13T17:03:42.316Z,14.45
2019-05-13T17:05:35.442Z,14.34
2019-05-13T17:06:35.043Z,14.31
2019-05-13T17:08:27.853Z,14.24
2019-05-13T17:09:27.745Z,14.29
2019-05-13T17:11:20.542Z,14.30
2019-05-13T17:12:21.296Z,14.34
2019-05-13T17:14:13.246Z,14.26
2019-05-13T17:15:13.169Z,14.23
2019-05-13T17:17:05.975Z,14.30
2019-05-13T17:18:11.669Z,14.34
2019-05-13T17:19:58.740Z,14.35
2019-05-13T17:20:58.666Z,14.36
2019-05-13T17:22:51.470Z,14.42
2019-05-13T17:23:52.362Z,14.42
2019-05-13T17:25:44.239Z,14.57
2019-05-13T17:26:44.077Z,14.49
2019-05-13T17:28:36.835Z,14.54
2019-05-13T17:29:36.762Z,14.67
2019-05-13T17:31:29.546Z,14.67
2019-05-13T17:32:29.478Z,14.60
2019-05-13T17:34:22.267Z,14.59
2019-05-13T17:35:22.188Z,14.56
2019-05-13T17:37:14.959Z,14.60
2019-05-13T17:38:14.894Z,14.66
2019-05-13T17:40:07.708Z,14.61
2019-05-13T17:41:07.619Z,14.57
2019-05-13T17:43:00.413Z,14.61
2019-05-13T17:44:02.355Z,14.57
2019-05-13T17:45:53.124Z,14.59
2019-05-13T17:46:53.063Z,14.56
2019-05-13T17:48:45.856Z,14.74
2019-05-13T17:49:45.762Z,14.82
2019-05-13T17:51:38.562Z,14.72
2019-05-13T17:52:38.482Z,14.82
2019-05-13T17:54:32.002Z,14.95
2019-05-13T17:55:31.210Z,15.11
2019-05-13T17:57:24.027Z,15.01
2019-05-13T17:58:23.926Z,15.04
2019-05-13T18:00:16.723Z,14.98
2019-05-13T18:01:16.639Z,14.90
2019-05-13T18:03:11.360Z,14.93
2019-05-13T18:04:11.527Z,14.93
2019-05-13T18:06:02.619Z,14.83
2019-05-13T18:07:02.069Z,14.95
2019-05-13T18:08:54.882Z,14.86
2019-05-13T18:09:54.801Z,14.75
2019-05-13T18:11:47.637Z,14.71
2019-05-13T18:12:47.539Z,14.74
2019-05-13T18:14:41.193Z,14.54
2019-05-13T18:15:40.260Z,14.54
2019-05-13T18:17:33.053Z,14.61
2019-05-13T18:18:42.989Z,14.49
2019-05-13T18:20:25.776Z,14.45
2019-05-13T18:21:25.684Z,14.38
2019-05-13T18:23:18.535Z,14.38
2019-05-13T18:24:18.434Z,14.44
2019-05-13T18:26:12.410Z,14.31
2019-05-13T18:27:12.273Z,14.26
2019-05-13T18:29:03.983Z,14.13
2019-05-13T18:30:03.919Z,14.16
2019-05-13T18:31:56.762Z,14.09
2019-05-13T18:32:56.639Z,14.12
2019-05-13T18:34:49.443Z,14.02
2019-05-13T18:35:49.365Z,13.80
2019-05-13T18:37:42.166Z,13.80
2019-05-13T18:38:42.124Z,13.75
2019-05-13T18:40:35.292Z,13.51
2019-05-13T18:41:35.205Z,13.54
2019-05-13T18:43:28.118Z,13.43